Time;durP1;ratioP1;P1;durP2;ratioP2;P2;SDS_P1;SDS_P2;PMS_P1;PMS_P2;Temp;Humidity;BMP_temperature;BMP_pressure;BME280_temperature;BME280_humidity;BME280_pressure;Samples;Min_cycle;Max_cycle;Signal;HPM_P1;HPM_P2
2021/04/14 00:00:55;;;;;;;1.52;0.80;;;;;;;;;;5004581;28;20047;-70
2021/04/14 00:03:28;;;;;;;1.20;0.88;;;;;;;;;;4988629;28;20023;-67
2021/04/14 00:05:53;;;;;;;1.63;0.90;;;;;;;;;;4998258;28;20054;-67
2021/04/14 00:08:19;;;;;;;1.05;0.80;;;;;;;;;;5004874;28;20049;-67
2021/04/14 00:10:44;;;;;;;2.15;1.00;;;;;;;;;;5014523;28;20035;-67
2021/04/14 00:13:33;;;;;;;1.92;0.90;;;;;;;;;;4998823;28;20065;-67
2021/04/14 00:15:59;;;;;;;1.63;0.60;;;;;;;;;;4999532;28;20504;-68
2021/04/14 00:18:25;;;;;;;1.40;0.80;;;;;;;;;;4998270;28;20026;-67
2021/04/14 00:20:50;;;;;;;1.52;0.80;;;;;;;;;;4998700;28;20891;-67
2021/04/14 00:23:17;;;;;;;1.45;0.70;;;;;;;;;;4999589;28;20042;-67
2021/04/14 00:25:44;;;;;;;1.33;0.77;;;;;;;;;;4997906;28;20043;-67
2021/04/14 00:28:11;;;;;;;1.63;0.70;;;;;;;;;;5014604;28;20126;-67
2021/04/14 00:30:36;;;;;;;0.82;0.60;;;;;;;;;;4998351;28;20050;-67
2021/04/14 00:33:02;;;;;;;1.55;0.63;;;;;;;;;;4980927;28;20089;-67
2021/04/14 00:35:27;;;;;;;1.02;0.60;;;;;;;;;;4999873;28;20035;-67
2021/04/14 00:37:53;;;;;;;1.70;0.70;;;;;;;;;;4987313;28;20034;-67
2021/04/14 00:40:43;;;;;;;1.13;0.60;;;;;;;;;;4998302;28;20038;-67
2021/04/14 00:43:13;;;;;;;2.35;0.88;;;;;;;;;;4995480;28;20066;-67
2021/04/14 00:45:38;;;;;;;1.20;0.73;;;;;;;;;;5000198;28;20487;-66
2021/04/14 00:48:05;;;;;;;1.65;0.52;;;;;;;;;;5003731;28;20062;-67
2021/04/14 00:50:30;;;;;;;1.35;0.70;;;;;;;;;;4997688;28;20074;-67
2021/04/14 00:52:56;;;;;;;1.88;0.70;;;;;;;;;;4999005;28;20564;-67
2021/04/14 00:55:23;;;;;;;0.70;0.50;;;;;;;;;;4998288;28;20023;-67
2021/04/14 00:57:48;;;;;;;0.98;0.70;;;;;;;;;;4998135;28;20042;-67
2021/04/14 01:00:30;;;;;;;1.13;0.60;;;;;;;;;;4999557;28;20046;-67
2021/04/14 01:02:56;;;;;;;3.72;0.65;;;;;;;;;;4998463;28;20041;-67
2021/04/14 01:05:21;;;;;;;2.83;0.73;;;;;;;;;;4997176;28;20090;-67
2021/04/14 01:07:48;;;;;;;1.50;0.80;;;;;;;;;;4981524;28;20058;-67
2021/04/14 01:10:13;;;;;;;1.67;0.70;;;;;;;;;;4990254;28;20034;-67
2021/04/14 01:12:39;;;;;;;1.15;0.70;;;;;;;;;;4989026;28;20042;-67
2021/04/14 01:15:06;;;;;;;1.27;0.70;;;;;;;;;;4998543;28;20045;-67
2021/04/14 01:17:32;;;;;;;1.70;0.85;;;;;;;;;;4999343;28;20046;-68
2021/04/14 01:19:57;;;;;;;2.30;0.93;;;;;;;;;;4987448;28;21047;-67
2021/04/14 01:22:22;;;;;;;2.03;0.90;;;;;;;;;;4997975;28;20061;-67
2021/04/14 01:24:48;;;;;;;1.80;1.20;;;;;;;;;;4999292;28;20041;-67
2021/04/14 01:27:13;;;;;;;1.38;0.90;;;;;;;;;;4997163;28;20628;-67
2021/04/14 01:29:39;;;;;;;2.25;1.90;;;;;;;;;;5014417;28;20086;-67
2021/04/14 01:32:05;;;;;;;3.15;2.40;;;;;;;;;;4996184;28;20045;-66
2021/04/14 01:34:30;;;;;;;3.03;2.10;;;;;;;;;;5002772;28;20035;-67
2021/04/14 01:36:56;;;;;;;2.17;1.60;;;;;;;;;;4998817;28;20045;-67
2021/04/14 01:39:21;;;;;;;2.60;1.52;;;;;;;;;;4999760;28;20416;-67
2021/04/14 01:41:47;;;;;;;1.40;0.98;;;;;;;;;;5011268;28;20385;-67
2021/04/14 01:44:12;;;;;;;1.50;1.00;;;;;;;;;;4997280;28;20039;-67
2021/04/14 01:46:39;;;;;;;1.80;0.85;;;;;;;;;;4997661;28;20049;-67
2021/04/14 01:49:04;;;;;;;1.00;0.80;;;;;;;;;;4998510;28;20026;-67
2021/04/14 01:51:30;;;;;;;1.45;0.90;;;;;;;;;;4997579;28;20038;-67
2021/04/14 01:53:55;;;;;;;0.70;0.70;;;;;;;;;;4996998;28;20034;-67
2021/04/14 01:56:21;;;;;;;1.40;0.90;;;;;;;;;;5002850;28;20571;-67
2021/04/14 01:58:46;;;;;;;1.33;0.85;;;;;;;;;;5002294;28;20038;-67
2021/04/14 02:01:12;;;;;;;0.80;0.80;;;;;;;;;;4997059;28;20035;-67
2021/04/14 02:03:39;;;;;;;1.08;0.70;;;;;;;;;;5011194;28;20932;-68
2021/04/14 02:06:05;;;;;;;1.55;0.75;;;;;;;;;;4994298;28;20555;-67
2021/04/14 02:08:31;;;;;;;0.80;0.73;;;;;;;;;;5003459;28;20034;-67
2021/04/14 02:10:57;;;;;;;0.98;0.70;;;;;;;;;;4994861;28;20544;-67
2021/04/14 02:13:30;;;;;;;1.38;0.70;;;;;;;;;;4999571;28;20034;-67
2021/04/14 02:15:55;;;;;;;1.88;0.93;;;;;;;;;;4999076;28;20062;-67
2021/04/14 02:18:21;;;;;;;1.40;0.80;;;;;;;;;;4997395;28;20047;-67
2021/04/14 02:20:47;;;;;;;1.80;0.98;;;;;;;;;;4997877;28;20027;-67
2021/04/14 02:23:22;;;;;;;1.10;0.90;;;;;;;;;;4995542;28;20043;-67
2021/04/14 02:25:48;;;;;;;1.05;0.80;;;;;;;;;;4996904;28;20050;-67
2021/04/14 02:28:14;;;;;;;2.97;1.02;;;;;;;;;;4995657;28;20054;-67
2021/04/14 02:30:40;;;;;;;1.42;0.90;;;;;;;;;;4979203;28;20501;-67
2021/04/14 02:33:06;;;;;;;2.22;0.98;;;;;;;;;;4986088;28;20039;-67
2021/04/14 02:35:31;;;;;;;1.92;1.00;;;;;;;;;;5002178;28;20659;-67
2021/04/14 02:37:57;;;;;;;1.60;0.80;;;;;;;;;;4996885;28;20038;-67
2021/04/14 02:40:22;;;;;;;1.65;0.93;;;;;;;;;;4994702;28;20026;-67
2021/04/14 02:42:48;;;;;;;1.75;1.02;;;;;;;;;;4997124;28;20038;-67
2021/04/14 02:45:14;;;;;;;1.73;0.95;;;;;;;;;;4994908;28;20041;-67
2021/04/14 02:47:39;;;;;;;1.73;1.20;;;;;;;;;;4996277;28;20037;-67
2021/04/14 02:50:06;;;;;;;1.10;0.80;;;;;;;;;;4996012;28;20058;-67
2021/04/14 02:52:32;;;;;;;1.83;1.00;;;;;;;;;;4994179;28;20038;-67
2021/04/14 02:54:57;;;;;;;1.42;1.05;;;;;;;;;;5001829;28;20038;-67
2021/04/14 02:57:23;;;;;;;1.45;1.00;;;;;;;;;;4997772;28;20034;-67
2021/04/14 02:59:48;;;;;;;2.28;1.50;;;;;;;;;;4986282;28;20031;-67
2021/04/14 03:02:14;;;;;;;2.15;1.20;;;;;;;;;;4995989;28;20034;-67
2021/04/14 03:04:39;;;;;;;2.00;1.00;;;;;;;;;;4993253;28;20047;-67
2021/04/14 03:07:05;;;;;;;2.08;1.25;;;;;;;;;;4996865;28;20038;-67
2021/04/14 03:09:30;;;;;;;1.77;1.20;;;;;;;;;;4995661;28;20503;-67
2021/04/14 03:11:56;;;;;;;2.25;1.20;;;;;;;;;;4997144;28;20033;-68
2021/04/14 03:14:21;;;;;;;2.30;1.08;;;;;;;;;;5001264;28;20045;-66
2021/04/14 03:16:47;;;;;;;1.63;0.85;;;;;;;;;;5001626;28;20039;-66
2021/04/14 03:19:12;;;;;;;1.70;1.10;;;;;;;;;;4977226;28;20381;-66
2021/04/14 03:21:38;;;;;;;1.48;1.05;;;;;;;;;;4993900;28;20031;-66
2021/04/14 03:24:04;;;;;;;1.50;1.00;;;;;;;;;;4995278;28;20035;-67
2021/04/14 03:26:30;;;;;;;2.05;1.10;;;;;;;;;;4995470;28;20034;-67
2021/04/14 03:28:55;;;;;;;2.00;1.25;;;;;;;;;;4995594;28;20035;-67
2021/04/14 03:31:21;;;;;;;3.08;1.20;;;;;;;;;;4995865;28;20034;-67
2021/04/14 03:33:46;;;;;;;1.60;1.25;;;;;;;;;;4994776;28;20038;-67
2021/04/14 03:36:12;;;;;;;2.42;1.35;;;;;;;;;;4993819;28;20071;-67
2021/04/14 03:38:37;;;;;;;2.13;1.20;;;;;;;;;;4995879;28;20111;-67
2021/04/14 03:41:03;;;;;;;1.75;1.00;;;;;;;;;;4993655;28;20492;-67
2021/04/14 03:43:29;;;;;;;1.60;1.20;;;;;;;;;;4995545;28;20042;-67
2021/04/14 03:45:58;;;;;;;2.10;1.10;;;;;;;;;;4983102;28;20035;-67
2021/04/14 03:48:24;;;;;;;2.05;1.30;;;;;;;;;;4993932;28;20535;-67
2021/04/14 03:50:49;;;;;;;2.33;1.30;;;;;;;;;;4996719;28;20529;-67
2021/04/14 03:53:27;;;;;;;1.60;1.30;;;;;;;;;;4997283;28;20031;-67
2021/04/14 03:55:57;;;;;;;2.05;1.23;;;;;;;;;;5003879;28;20038;-67
2021/04/14 03:58:23;;;;;;;1.77;1.20;;;;;;;;;;5003583;28;20044;-67
2021/04/14 04:00:52;;;;;;;3.00;1.13;;;;;;;;;;4996741;28;20086;-67
2021/04/14 04:03:19;;;;;;;3.13;1.40;;;;;;;;;;4995770;28;20069;-67
2021/04/14 04:05:45;;;;;;;2.88;1.48;;;;;;;;;;4984245;28;20038;-67
2021/04/14 04:08:11;;;;;;;2.03;1.40;;;;;;;;;;4986109;28;20538;-67
2021/04/14 04:10:36;;;;;;;2.47;1.48;;;;;;;;;;4996069;28;20049;-66
2021/04/14 04:13:02;;;;;;;3.33;1.70;;;;;;;;;;4994473;28;20100;-67
2021/04/14 04:15:28;;;;;;;3.70;2.00;;;;;;;;;;4996541;28;20137;-67
2021/04/14 04:17:53;;;;;;;3.15;1.75;;;;;;;;;;4995699;28;20587;-67
2021/04/14 04:20:19;;;;;;;2.47;1.90;;;;;;;;;;4993285;28;20582;-67
2021/04/14 04:22:44;;;;;;;3.25;2.15;;;;;;;;;;4959824;28;20082;-67
2021/04/14 04:25:11;;;;;;;2.50;1.75;;;;;;;;;;4992156;28;20039;-67
2021/04/14 04:27:36;;;;;;;3.08;1.70;;;;;;;;;;4995832;28;20038;-67
2021/04/14 04:30:03;;;;;;;2.58;1.33;;;;;;;;;;4995177;28;20041;-67
2021/04/14 04:32:29;;;;;;;3.55;1.50;;;;;;;;;;4996334;28;20030;-67
2021/04/14 04:34:54;;;;;;;2.58;1.75;;;;;;;;;;4980418;28;20034;-67
2021/04/14 04:37:20;;;;;;;1.25;1.10;;;;;;;;;;5004225;28;20050;-67
2021/04/14 04:39:45;;;;;;;2.85;1.40;;;;;;;;;;4998786;28;21225;-67
2021/04/14 04:42:11;;;;;;;1.70;1.40;;;;;;;;;;4998784;28;20046;-67
2021/04/14 04:44:36;;;;;;;2.35;1.40;;;;;;;;;;4998747;28;20035;-68
2021/04/14 04:47:02;;;;;;;2.60;1.70;;;;;;;;;;4998253;28;20077;-67
2021/04/14 04:49:27;;;;;;;1.73;1.30;;;;;;;;;;4997732;28;20729;-68
2021/04/14 04:51:53;;;;;;;2.97;1.90;;;;;;;;;;4998026;28;20026;-67
2021/04/14 04:54:18;;;;;;;2.45;1.60;;;;;;;;;;4999767;28;20523;-67
2021/04/14 04:56:44;;;;;;;2.28;1.25;;;;;;;;;;4997265;28;20046;-67
2021/04/14 04:59:09;;;;;;;2.58;1.48;;;;;;;;;;5003992;28;20092;-67
2021/04/14 05:01:35;;;;;;;2.47;1.55;;;;;;;;;;4998880;28;20039;-67
2021/04/14 05:04:01;;;;;;;1.55;1.23;;;;;;;;;;4996571;28;20034;-67
2021/04/14 05:06:26;;;;;;;2.22;1.40;;;;;;;;;;4997266;28;20488;-67
2021/04/14 05:08:52;;;;;;;2.95;1.50;;;;;;;;;;4996839;28;20038;-67
2021/04/14 05:11:17;;;;;;;1.92;1.35;;;;;;;;;;5002316;28;20041;-67
2021/04/14 05:13:43;;;;;;;2.25;1.42;;;;;;;;;;4999036;28;20045;-67
2021/04/14 05:16:08;;;;;;;2.42;1.48;;;;;;;;;;4997958;28;20045;-68
2021/04/14 05:18:35;;;;;;;2.60;1.50;;;;;;;;;;4999565;28;20030;-67
2021/04/14 05:21:05;;;;;;;1.75;1.20;;;;;;;;;;4997422;28;20034;-67
2021/04/14 05:23:30;;;;;;;5.03;2.80;;;;;;;;;;5002868;28;20121;-67
2021/04/14 05:25:56;;;;;;;8.25;5.28;;;;;;;;;;4998354;28;20038;-67
2021/04/14 05:28:23;;;;;;;11.20;8.02;;;;;;;;;;4978485;28;20090;-67
2021/04/14 05:30:49;;;;;;;2.20;1.48;;;;;;;;;;5003100;28;20041;-67
2021/04/14 05:33:14;;;;;;;2.67;1.45;;;;;;;;;;4987086;28;20928;-68
2021/04/14 05:35:40;;;;;;;2.25;1.33;;;;;;;;;;4995705;28;20146;-67
2021/04/14 05:38:06;;;;;;;2.28;1.50;;;;;;;;;;4999725;28;20503;-67
2021/04/14 05:40:32;;;;;;;1.67;1.17;;;;;;;;;;4998775;28;20793;-68
2021/04/14 05:42:58;;;;;;;1.88;1.40;;;;;;;;;;4987425;28;20108;-67
2021/04/14 05:45:28;;;;;;;2.38;1.70;;;;;;;;;;4997124;28;20023;-67
2021/04/14 05:47:54;;;;;;;2.08;1.40;;;;;;;;;;4997124;28;20034;-67
2021/04/14 05:50:22;;;;;;;3.33;1.70;;;;;;;;;;5003506;28;20110;-67
2021/04/14 05:52:48;;;;;;;2.50;1.67;;;;;;;;;;4975371;28;20809;-67
2021/04/14 05:55:13;;;;;;;2.60;1.75;;;;;;;;;;4988127;28;20046;-66
2021/04/14 05:57:39;;;;;;;5.45;3.00;;;;;;;;;;4995858;28;20043;-66
2021/04/14 06:00:06;;;;;;;4.90;2.50;;;;;;;;;;5002499;28;20042;-66
2021/04/14 06:02:34;;;;;;;4.30;2.58;;;;;;;;;;4996527;28;20042;-66
2021/04/14 06:04:59;;;;;;;3.08;1.80;;;;;;;;;;4986873;28;20034;-66
2021/04/14 06:07:25;;;;;;;1.80;1.60;;;;;;;;;;4997261;28;20037;-66
2021/04/14 06:09:51;;;;;;;2.20;1.52;;;;;;;;;;4996162;28;20081;-66
2021/04/14 06:12:16;;;;;;;3.33;1.50;;;;;;;;;;4987387;28;20051;-66
2021/04/14 06:14:42;;;;;;;2.20;1.40;;;;;;;;;;4987009;28;20033;-67
2021/04/14 06:17:07;;;;;;;3.03;1.88;;;;;;;;;;4997614;28;20038;-67
2021/04/14 06:19:35;;;;;;;2.85;1.90;;;;;;;;;;4997126;28;20117;-67
2021/04/14 06:22:00;;;;;;;3.38;1.60;;;;;;;;;;5001245;28;20043;-66
2021/04/14 06:24:26;;;;;;;2.15;1.50;;;;;;;;;;4997192;28;20035;-67
2021/04/14 06:26:54;;;;;;;3.28;1.50;;;;;;;;;;4996256;28;20278;-67
2021/04/14 06:29:20;;;;;;;2.90;1.60;;;;;;;;;;4999037;28;20042;-67
2021/04/14 06:31:46;;;;;;;3.40;1.65;;;;;;;;;;4999517;28;20038;-67
2021/04/14 06:34:20;;;;;;;2.65;1.60;;;;;;;;;;4999996;28;20094;-67
2021/04/14 06:36:49;;;;;;;2.72;1.80;;;;;;;;;;4998331;28;20085;-67
2021/04/14 06:39:16;;;;;;;2.63;1.38;;;;;;;;;;5014843;28;20109;-67
2021/04/14 06:45:00;;;;;;;2.97;1.50;;;;;;;;;;4935190;28;20074;-67
2021/04/14 06:47:54;;;;;;;2.10;1.60;;;;;;;;;;4998506;28;20038;-67
2021/04/14 06:50:31;;;;;;;2.95;1.60;;;;;;;;;;4996540;28;20043;-67
2021/04/14 06:53:25;;;;;;;2.97;1.45;;;;;;;;;;4995012;28;20035;-67
2021/04/14 06:55:56;;;;;;;2.78;1.35;;;;;;;;;;4999128;28;20043;-67
2021/04/14 06:58:25;;;;;;;2.72;1.42;;;;;;;;;;4995614;28;21188;-67
2021/04/14 07:00:56;;;;;;;2.35;1.50;;;;;;;;;;4992256;28;20772;-67
2021/04/14 07:03:26;;;;;;;3.28;1.38;;;;;;;;;;5002867;28;20046;-67
2021/04/14 07:05:59;;;;;;;2.10;1.40;;;;;;;;;;4996553;28;20105;-67
2021/04/14 07:08:27;;;;;;;2.17;1.30;;;;;;;;;;4981488;28;20733;-67
2021/04/14 07:10:57;;;;;;;1.60;1.30;;;;;;;;;;4997598;28;20566;-67
2021/04/14 07:13:23;;;;;;;2.03;1.23;;;;;;;;;;4979462;28;20035;-66
2021/04/14 07:15:48;;;;;;;2.30;1.35;;;;;;;;;;4986674;28;20034;-67
2021/04/14 07:18:23;;;;;;;2.13;1.30;;;;;;;;;;4984182;28;20026;-67
2021/04/14 07:21:00;;;;;;;3.72;1.33;;;;;;;;;;4997186;28;20035;-67
2021/04/14 07:23:41;;;;;;;2.25;1.30;;;;;;;;;;4995156;28;20045;-67
2021/04/14 07:26:43;;;;;;;2.28;1.20;;;;;;;;;;4993235;28;20452;-67
2021/04/14 07:29:24;;;;;;;2.25;1.17;;;;;;;;;;5007425;28;20031;-67
2021/04/14 07:32:22;;;;;;;2.42;1.40;;;;;;;;;;4996915;28;20035;-67
2021/04/14 07:34:57;;;;;;;2.17;1.20;;;;;;;;;;5000007;28;20034;-67
2021/04/14 07:37:31;;;;;;;3.28;1.52;;;;;;;;;;4994427;28;20855;-67
2021/04/14 07:40:19;;;;;;;2.25;1.33;;;;;;;;;;4995670;28;20089;-66
2021/04/14 07:43:12;;;;;;;3.03;1.25;;;;;;;;;;4999163;28;20114;-68
2021/04/14 07:45:38;;;;;;;1.67;1.20;;;;;;;;;;4997224;28;20042;-67
2021/04/14 07:48:14;;;;;;;3.17;1.35;;;;;;;;;;4998964;28;20027;-67
2021/04/14 07:50:49;;;;;;;2.50;1.33;;;;;;;;;;4997670;28;20034;-67
2021/04/14 07:53:26;;;;;;;3.22;1.30;;;;;;;;;;4994602;28;20034;-67
2021/04/14 07:56:00;;;;;;;4.22;1.45;;;;;;;;;;4997398;28;20043;-67
2021/04/14 07:58:26;;;;;;;2.20;1.30;;;;;;;;;;4996276;28;20034;-66
2021/04/14 08:00:51;;;;;;;1.27;0.93;;;;;;;;;;5001528;28;20106;-66
2021/04/14 08:03:25;;;;;;;2.38;1.00;;;;;;;;;;4995055;28;20043;-67
2021/04/14 08:05:50;;;;;;;2.47;1.40;;;;;;;;;;4994071;28;20585;-67
2021/04/14 08:08:22;;;;;;;2.80;1.17;;;;;;;;;;4996695;28;20030;-67
2021/04/14 08:11:00;;;;;;;2.33;1.20;;;;;;;;;;4997788;28;20084;-67
2021/04/14 08:13:32;;;;;;;1.98;1.08;;;;;;;;;;4985062;28;20050;-66
2021/04/14 08:15:57;;;;;;;1.33;0.85;;;;;;;;;;4980136;28;20027;-66
2021/04/14 08:18:28;;;;;;;2.25;0.85;;;;;;;;;;5001076;28;20026;-67
2021/04/14 08:21:12;;;;;;;1.87;0.80;;;;;;;;;;5013871;28;20113;-66
2021/04/14 08:23:39;;;;;;;3.13;1.10;;;;;;;;;;4983066;28;20035;-67
2021/04/14 08:26:16;;;;;;;1.88;0.98;;;;;;;;;;4983121;28;20520;-66
2021/04/14 08:28:44;;;;;;;1.77;0.80;;;;;;;;;;5015152;28;20060;-67
2021/04/14 08:31:19;;;;;;;1.83;0.80;;;;;;;;;;4986020;28;20035;-67
2021/04/14 08:33:45;;;;;;;1.85;0.70;;;;;;;;;;4997286;28;20492;-66
2021/04/14 08:36:21;;;;;;;1.92;0.75;;;;;;;;;;4988823;28;20039;-66
2021/04/14 08:38:46;;;;;;;1.60;0.85;;;;;;;;;;4998546;28;20035;-67
2021/04/14 08:41:26;;;;;;;2.15;0.77;;;;;;;;;;5003833;28;20038;-67
2021/04/14 08:43:53;;;;;;;1.40;0.80;;;;;;;;;;4982551;28;20038;-66
2021/04/14 08:46:36;;;;;;;1.80;0.82;;;;;;;;;;5000423;28;20031;-66
2021/04/14 08:49:03;;;;;;;2.28;0.80;;;;;;;;;;5000107;28;20049;-67
2021/04/14 08:51:35;;;;;;;0.63;0.50;;;;;;;;;;5000909;28;20112;-67
2021/04/14 08:54:00;;;;;;;2.03;0.80;;;;;;;;;;4998799;28;20043;-66
2021/04/14 08:56:26;;;;;;;1.33;0.70;;;;;;;;;;4998983;28;20497;-67
2021/04/14 08:58:55;;;;;;;2.25;0.50;;;;;;;;;;4998284;28;20027;-66
2021/04/14 09:01:21;;;;;;;2.15;0.80;;;;;;;;;;5005118;28;20049;-66
2021/04/14 09:03:46;;;;;;;1.55;0.70;;;;;;;;;;4998414;28;20075;-66
2021/04/14 09:06:12;;;;;;;0.70;0.55;;;;;;;;;;4966089;28;20050;-66
2021/04/14 09:08:42;;;;;;;1.92;0.68;;;;;;;;;;4988196;28;20042;-66
2021/04/14 09:11:19;;;;;;;1.67;0.60;;;;;;;;;;4997493;28;20492;-66
2021/04/14 09:13:44;;;;;;;0.88;0.40;;;;;;;;;;5000093;28;20042;-67
2021/04/14 09:16:10;;;;;;;1.65;0.73;;;;;;;;;;4995971;28;20043;-67
2021/04/14 09:18:44;;;;;;;1.20;0.70;;;;;;;;;;4997146;28;20434;-67
2021/04/14 09:21:14;;;;;;;2.03;0.63;;;;;;;;;;5004392;28;20038;-67
2021/04/14 09:23:57;;;;;;;1.80;0.65;;;;;;;;;;5015750;28;20045;-67
2021/04/14 09:26:51;;;;;;;1.60;0.60;;;;;;;;;;4997152;28;20093;-67
2021/04/14 09:29:27;;;;;;;1.98;0.45;;;;;;;;;;4995955;28;20039;-67
2021/04/14 09:31:55;;;;;;;1.13;0.57;;;;;;;;;;4981754;28;20035;-68
2021/04/14 09:34:41;;;;;;;0.95;0.57;;;;;;;;;;4980497;28;20038;-68
2021/04/14 09:37:12;;;;;;;1.27;0.57;;;;;;;;;;4997226;28;20042;-67
2021/04/14 09:39:57;;;;;;;1.08;0.45;;;;;;;;;;4998292;28;20057;-67
2021/04/14 09:42:22;;;;;;;1.83;0.80;;;;;;;;;;4996691;28;20125;-67
2021/04/14 09:44:50;;;;;;;1.70;0.70;;;;;;;;;;4998105;28;20034;-67
2021/04/14 09:47:20;;;;;;;1.27;0.52;;;;;;;;;;4996930;28;20102;-67
2021/04/14 09:49:47;;;;;;;1.38;0.60;;;;;;;;;;4984609;28;20522;-67
2021/04/14 09:52:30;;;;;;;1.27;0.60;;;;;;;;;;4999243;28;20031;-67
2021/04/14 09:55:09;;;;;;;1.33;0.57;;;;;;;;;;4997241;28;20070;-68
2021/04/14 09:57:40;;;;;;;1.25;0.50;;;;;;;;;;4996715;28;20042;-66
2021/04/14 10:00:19;;;;;;;1.45;0.55;;;;;;;;;;5004118;28;20038;-68
2021/04/14 10:02:47;;;;;;;1.40;0.60;;;;;;;;;;4972950;28;20050;-69
2021/04/14 10:05:13;;;;;;;0.55;0.38;;;;;;;;;;4985802;28;20117;-68
2021/04/14 10:07:40;;;;;;;0.50;0.40;;;;;;;;;;4986029;28;20038;-69
2021/04/14 10:10:42;;;;;;;1.20;0.47;;;;;;;;;;4988384;28;20085;-67
2021/04/14 10:13:09;;;;;;;0.25;0.25;;;;;;;;;;4999408;28;20034;-68
2021/04/14 10:15:37;;;;;;;1.63;0.60;;;;;;;;;;4999539;28;20034;-68
2021/04/14 10:18:21;;;;;;;0.85;0.40;;;;;;;;;;4981937;28;20054;-66
2021/04/14 10:20:46;;;;;;;1.20;0.30;;;;;;;;;;4993498;28;20087;-65
2021/04/14 10:23:13;;;;;;;0.30;0.30;;;;;;;;;;4998029;28;20042;-66
2021/04/14 10:25:40;;;;;;;0.45;0.40;;;;;;;;;;5002801;28;20038;-66
2021/04/14 10:28:15;;;;;;;0.60;0.40;;;;;;;;;;4996152;28;20038;-65
2021/04/14 10:30:59;;;;;;;1.55;0.45;;;;;;;;;;4999228;28;20532;-65
2021/04/14 10:33:25;;;;;;;1.17;0.50;;;;;;;;;;4999115;28;20043;-64
2021/04/14 10:35:51;;;;;;;0.40;0.40;;;;;;;;;;4986777;28;20089;-66
2021/04/14 10:38:34;;;;;;;0.50;0.35;;;;;;;;;;4994894;28;20042;-65
2021/04/14 10:41:00;;;;;;;0.50;0.40;;;;;;;;;;4981776;28;20476;-64
2021/04/14 10:43:27;;;;;;;2.25;0.60;;;;;;;;;;5001144;28;20026;-65
2021/04/14 10:46:00;;;;;;;1.27;0.52;;;;;;;;;;4997254;28;20043;-65
2021/04/14 10:48:26;;;;;;;0.80;0.50;;;;;;;;;;4988922;28;20058;-64
2021/04/14 10:51:05;;;;;;;2.10;0.52;;;;;;;;;;4973112;28;20042;-65
2021/04/14 10:53:32;;;;;;;1.42;0.50;;;;;;;;;;4988095;28;20046;-65
2021/04/14 10:55:58;;;;;;;1.25;0.60;;;;;;;;;;4996821;28;20506;-64
2021/04/14 10:58:23;;;;;;;1.70;0.52;;;;;;;;;;4997460;28;20045;-65
2021/04/14 11:00:49;;;;;;;0.77;0.52;;;;;;;;;;4995747;28;20078;-65
2021/04/14 11:03:19;;;;;;;1.67;0.60;;;;;;;;;;4996854;28;20121;-65
2021/04/14 11:05:47;;;;;;;1.48;0.60;;;;;;;;;;4970093;28;20039;-68
2021/04/14 11:08:13;;;;;;;1.75;0.50;;;;;;;;;;4995348;28;20046;-66
2021/04/14 11:10:39;;;;;;;2.53;0.93;;;;;;;;;;4987377;28;20039;-67
2021/04/14 11:13:05;;;;;;;2.13;0.70;;;;;;;;;;4970899;28;20856;-65
2021/04/14 11:15:32;;;;;;;0.95;0.47;;;;;;;;;;4986500;28;20031;-65
2021/04/14 11:18:05;;;;;;;1.38;0.70;;;;;;;;;;4977950;28;20521;-65
2021/04/14 11:21:14;;;;;;;1.90;0.52;;;;;;;;;;4963722;28;20088;-64
2021/04/14 11:23:41;;;;;;;1.88;0.68;;;;;;;;;;4997526;28;20082;-64
2021/04/14 11:26:06;;;;;;;1.27;0.50;;;;;;;;;;4996342;28;20034;-64
2021/04/14 11:28:49;;;;;;;1.00;0.47;;;;;;;;;;4997453;28;20027;-64
2021/04/14 11:31:31;;;;;;;0.80;0.40;;;;;;;;;;4963023;28;20612;-64
2021/04/14 11:33:57;;;;;;;1.10;0.40;;;;;;;;;;4998404;28;20045;-64
2021/04/14 11:36:25;;;;;;;0.85;0.50;;;;;;;;;;4969835;28;20101;-64
2021/04/14 11:39:02;;;;;;;0.80;0.52;;;;;;;;;;4997851;28;20058;-64
2021/04/14 11:41:37;;;;;;;0.57;0.40;;;;;;;;;;4979421;28;20039;-64
2021/04/14 11:44:17;;;;;;;0.95;0.40;;;;;;;;;;5004034;28;20034;-64
2021/04/14 11:46:59;;;;;;;1.55;0.52;;;;;;;;;;4999129;28;20505;-64
2021/04/14 11:49:27;;;;;;;2.65;0.60;;;;;;;;;;4999943;28;20037;-64
2021/04/14 11:51:53;;;;;;;0.73;0.30;;;;;;;;;;5000532;28;20034;-64
2021/04/14 11:54:18;;;;;;;1.13;0.50;;;;;;;;;;4987886;28;20370;-64
2021/04/14 11:56:45;;;;;;;0.88;0.40;;;;;;;;;;5000041;28;20053;-64
2021/04/14 11:59:26;;;;;;;0.70;0.32;;;;;;;;;;5000106;28;20042;-64
2021/04/14 12:02:03;;;;;;;0.73;0.45;;;;;;;;;;4998384;28;20081;-64
2021/04/14 12:04:29;;;;;;;1.77;0.60;;;;;;;;;;4989563;28;20907;-64
2021/04/14 12:06:55;;;;;;;1.58;0.43;;;;;;;;;;4998320;28;20039;-64
2021/04/14 12:09:20;;;;;;;0.60;0.60;;;;;;;;;;5002090;28;20026;-63
2021/04/14 12:11:59;;;;;;;1.42;0.68;;;;;;;;;;4999446;28;20030;-65
2021/04/14 12:14:25;;;;;;;1.00;0.70;;;;;;;;;;5000118;28;20834;-66
2021/04/14 12:16:50;;;;;;;0.50;0.40;;;;;;;;;;5006068;28;20037;-64
2021/04/14 12:19:16;;;;;;;0.95;0.40;;;;;;;;;;4997589;28;20546;-65
2021/04/14 12:21:41;;;;;;;1.58;0.52;;;;;;;;;;5005492;28;20523;-65
2021/04/14 12:24:07;;;;;;;1.02;0.50;;;;;;;;;;5015945;28;20404;-65
2021/04/14 12:26:32;;;;;;;1.52;0.52;;;;;;;;;;4998419;28;20045;-65
2021/04/14 12:28:58;;;;;;;0.82;0.50;;;;;;;;;;4998700;28;20029;-64
2021/04/14 12:31:23;;;;;;;1.13;0.60;;;;;;;;;;5006074;28;20489;-65
2021/04/14 12:33:49;;;;;;;1.05;0.60;;;;;;;;;;4999623;28;20049;-65
2021/04/14 12:36:15;;;;;;;0.50;0.30;;;;;;;;;;5000828;28;20054;-64
2021/04/14 12:38:40;;;;;;;0.50;0.40;;;;;;;;;;5000465;28;20077;-64
2021/04/14 12:41:06;;;;;;;0.93;0.60;;;;;;;;;;4996959;28;20035;-65
2021/04/14 12:43:31;;;;;;;0.93;0.30;;;;;;;;;;5005283;28;20038;-65
2021/04/14 12:45:57;;;;;;;0.60;0.50;;;;;;;;;;4997467;28;20039;-65
2021/04/14 12:48:24;;;;;;;1.58;0.40;;;;;;;;;;4999310;28;20546;-65
2021/04/14 12:51:03;;;;;;;0.98;0.50;;;;;;;;;;4968428;28;20852;-65
2021/04/14 12:53:33;;;;;;;0.32;0.32;;;;;;;;;;4998284;28;20114;-65
2021/04/14 12:55:59;;;;;;;1.05;0.43;;;;;;;;;;4997344;28;20045;-65
2021/04/14 12:58:34;;;;;;;0.65;0.50;;;;;;;;;;4997295;28;20046;-65
2021/04/14 13:00:59;;;;;;;2.08;0.80;;;;;;;;;;4998041;28;20035;-65
2021/04/14 13:03:34;;;;;;;1.10;0.40;;;;;;;;;;4997913;28;20396;-65
2021/04/14 13:06:03;;;;;;;0.93;0.60;;;;;;;;;;4999242;28;20776;-66
2021/04/14 13:08:32;;;;;;;1.83;0.60;;;;;;;;;;4981143;28;20038;-65
2021/04/14 13:11:24;;;;;;;1.63;0.60;;;;;;;;;;4972221;28;20556;-66
2021/04/14 13:13:50;;;;;;;;;;;;;;;;;;5004824;28;20058;-65
2021/04/14 13:16:30;;;;;;;1.88;0.60;;;;;;;;;;4987770;28;19918;-65
2021/04/14 13:18:56;;;;;;;0.82;0.60;;;;;;;;;;5003569;28;20294;-65
2021/04/14 13:21:38;;;;;;;1.58;0.70;;;;;;;;;;4988026;28;20034;-65
2021/04/14 13:24:15;;;;;;;1.30;0.60;;;;;;;;;;4997506;28;20125;-65
2021/04/14 13:26:52;;;;;;;1.38;0.68;;;;;;;;;;4999498;28;20050;-66
2021/04/14 13:29:22;;;;;;;0.80;0.47;;;;;;;;;;4996249;28;20154;-65
2021/04/14 13:31:54;;;;;;;0.70;0.50;;;;;;;;;;5000227;28;20034;-64
2021/04/14 13:34:26;;;;;;;;;;;;;;;;;;4991740;28;20378;-64
2021/04/14 13:36:59;;;;;;;1.00;0.45;;;;;;;;;;4998113;28;19929;-64
2021/04/14 13:39:49;;;;;;;0.50;0.50;;;;;;;;;;4973279;28;20039;-64
2021/04/14 13:42:23;;;;;;;0.47;0.47;;;;;;;;;;4989143;28;20045;-64
2021/04/14 13:45:13;;;;;;;1.77;0.50;;;;;;;;;;5004164;28;20037;-64
2021/04/14 13:48:04;;;;;;;0.63;0.50;;;;;;;;;;4998236;28;20038;-64
2021/04/14 13:50:39;;;;;;;0.77;0.50;;;;;;;;;;4997467;28;20030;-63
2021/04/14 13:53:12;;;;;;;1.38;0.65;;;;;;;;;;4995750;28;20046;-64
2021/04/14 13:55:38;;;;;;;0.88;0.60;;;;;;;;;;4980027;28;20113;-66
2021/04/14 13:58:07;;;;;;;1.23;0.65;;;;;;;;;;4996546;28;20500;-66
2021/04/14 14:00:45;;;;;;;0.80;0.60;;;;;;;;;;4980272;28;20046;-66
2021/04/14 14:03:11;;;;;;;1.10;0.60;;;;;;;;;;4985980;28;21080;-64
2021/04/14 14:05:39;;;;;;;0.60;0.43;;;;;;;;;;5012739;28;20039;-64
2021/04/14 14:08:12;;;;;;;1.00;0.50;;;;;;;;;;4998958;28;20125;-65
2021/04/14 14:10:38;;;;;;;0.80;0.52;;;;;;;;;;5001413;28;20042;-64
2021/04/14 14:13:23;;;;;;;0.70;0.50;;;;;;;;;;4998290;28;20074;-65
2021/04/14 14:16:07;;;;;;;0.52;0.40;;;;;;;;;;4997765;28;20042;-65
2021/04/14 14:18:32;;;;;;;0.63;0.40;;;;;;;;;;4997404;28;20038;-65
2021/04/14 14:20:58;;;;;;;1.40;0.40;;;;;;;;;;4997571;28;20030;-64
2021/04/14 14:23:24;;;;;;;1.00;0.40;;;;;;;;;;5002689;28;20039;-65
2021/04/14 14:25:56;;;;;;;0.80;0.40;;;;;;;;;;4996493;28;20436;-65
2021/04/14 14:28:22;;;;;;;0.32;0.32;;;;;;;;;;4998714;28;20065;-65
2021/04/14 14:31:05;;;;;;;1.45;0.45;;;;;;;;;;5000946;28;20447;-64
2021/04/14 14:33:37;;;;;;;0.80;0.30;;;;;;;;;;5013051;28;20154;-64
2021/04/14 14:36:15;;;;;;;1.23;0.60;;;;;;;;;;4997204;28;20070;-63
2021/04/14 14:38:46;;;;;;;0.95;0.60;;;;;;;;;;5007686;28;20272;-65
2021/04/14 14:41:14;;;;;;;0.63;0.60;;;;;;;;;;4995590;28;20528;-63
2021/04/14 14:43:39;;;;;;;3.47;1.90;;;;;;;;;;4980881;28;20045;-64
2021/04/14 14:46:12;;;;;;;2.35;1.27;;;;;;;;;;4986925;28;20037;-64
2021/04/14 14:48:38;;;;;;;2.78;1.63;;;;;;;;;;4997029;28;20538;-64
2021/04/14 14:51:18;;;;;;;2.17;1.20;;;;;;;;;;4979964;28;20375;-64
2021/04/14 14:53:46;;;;;;;1.83;0.90;;;;;;;;;;4981758;28;20034;-64
2021/04/14 14:56:13;;;;;;;1.33;0.80;;;;;;;;;;4984643;28;20030;-64
2021/04/14 14:58:45;;;;;;;1.48;1.08;;;;;;;;;;4978735;28;20386;-65
2021/04/14 15:01:11;;;;;;;0.85;0.73;;;;;;;;;;4993989;28;20045;-65